sensor_id;sensor_type;location;lat;lon;timestamp;temperature;humidity
75134;HTU21D;73631;44.326;40.200;2024-02-04T00:02:34;1.93;67.25
75134;HTU21D;73631;44.326;40.200;2024-02-04T00:05:00;1.92;67.10
75134;HTU21D;73631;44.326;40.200;2024-02-04T00:07:27;1.88;67.07
75134;HTU21D;73631;44.326;40.200;2024-02-04T00:09:53;1.85;67.02
75134;HTU21D;73631;44.326;40.200;2024-02-04T00:12:19;1.84;67.08
75134;HTU21D;73631;44.326;40.200;2024-02-04T00:14:46;1.83;67.11
75134;HTU21D;73631;44.326;40.200;2024-02-04T00:17:12;1.84;67.10
75134;HTU21D;73631;44.326;40.200;2024-02-04T00:19:40;1.83;67.09
75134;HTU21D;73631;44.326;40.200;2024-02-04T00:22:08;1.80;67.09
75134;HTU21D;73631;44.326;40.200;2024-02-04T00:24:34;1.76;66.98
75134;HTU21D;73631;44.326;40.200;2024-02-04T00:27:00;1.70;67.06
75134;HTU21D;73631;44.326;40.200;2024-02-04T00:29:27;1.66;67.15
75134;HTU21D;73631;44.326;40.200;2024-02-04T00:31:53;1.63;67.16
75134;HTU21D;73631;44.326;40.200;2024-02-04T00:34:20;1.62;67.20
75134;HTU21D;73631;44.326;40.200;2024-02-04T00:36:46;1.61;67.23
75134;HTU21D;73631;44.326;40.200;2024-02-04T00:39:13;1.58;67.23
75134;HTU21D;73631;44.326;40.200;2024-02-04T00:41:57;1.54;67.19
75134;HTU21D;73631;44.326;40.200;2024-02-04T00:44:24;1.51;67.23
75134;HTU21D;73631;44.326;40.200;2024-02-04T00:46:50;1.49;67.30
75134;HTU21D;73631;44.326;40.200;2024-02-04T00:49:16;1.47;67.37
75134;HTU21D;73631;44.326;40.200;2024-02-04T00:51:43;1.47;67.40
75134;HTU21D;73631;44.326;40.200;2024-02-04T00:54:10;1.48;67.50
75134;HTU21D;73631;44.326;40.200;2024-02-04T00:56:36;1.48;67.51
75134;HTU21D;73631;44.326;40.200;2024-02-04T00:59:04;1.49;67.52
75134;HTU21D;73631;44.326;40.200;2024-02-04T01:01:30;1.51;67.89
75134;HTU21D;73631;44.326;40.200;2024-02-04T01:03:56;1.56;67.83
75134;HTU21D;73631;44.326;40.200;2024-02-04T01:06:23;1.65;67.81
75134;HTU21D;73631;44.326;40.200;2024-02-04T01:08:49;1.67;67.72
75134;HTU21D;73631;44.326;40.200;2024-02-04T01:11:16;1.71;67.69
75134;HTU21D;73631;44.326;40.200;2024-02-04T01:13:42;1.75;67.80
75134;HTU21D;73631;44.326;40.200;2024-02-04T01:16:09;1.83;67.81
75134;HTU21D;73631;44.326;40.200;2024-02-04T01:18:35;1.91;67.73
75134;HTU21D;73631;44.326;40.200;2024-02-04T01:21:01;1.96;67.72
75134;HTU21D;73631;44.326;40.200;2024-02-04T01:23:28;2.02;67.71
75134;HTU21D;73631;44.326;40.200;2024-02-04T01:25:55;2.11;67.68
75134;HTU21D;73631;44.326;40.200;2024-02-04T01:28:21;2.16;67.56
75134;HTU21D;73631;44.326;40.200;2024-02-04T01:30:48;2.22;67.46
75134;HTU21D;73631;44.326;40.200;2024-02-04T01:33:14;2.26;67.46
75134;HTU21D;73631;44.326;40.200;2024-02-04T01:35:41;2.28;67.41
75134;HTU21D;73631;44.326;40.200;2024-02-04T01:38:07;2.30;67.31
75134;HTU21D;73631;44.326;40.200;2024-02-04T01:40:33;2.31;67.29
75134;HTU21D;73631;44.326;40.200;2024-02-04T01:43:00;2.32;67.23
75134;HTU21D;73631;44.326;40.200;2024-02-04T01:45:26;2.30;67.20
75134;HTU21D;73631;44.326;40.200;2024-02-04T01:47:53;2.28;67.18
75134;HTU21D;73631;44.326;40.200;2024-02-04T01:50:20;2.26;67.15
75134;HTU21D;73631;44.326;40.200;2024-02-04T01:52:48;2.24;67.17
75134;HTU21D;73631;44.326;40.200;2024-02-04T01:55:15;2.21;67.16
75134;HTU21D;73631;44.326;40.200;2024-02-04T01:57:42;2.20;67.23
75134;HTU21D;73631;44.326;40.200;2024-02-04T02:00:09;2.20;67.38
75134;HTU21D;73631;44.326;40.200;2024-02-04T02:02:40;2.20;67.35
75134;HTU21D;73631;44.326;40.200;2024-02-04T02:05:08;2.19;67.33
75134;HTU21D;73631;44.326;40.200;2024-02-04T02:07:35;2.17;67.35
75134;HTU21D;73631;44.326;40.200;2024-02-04T02:10:01;2.15;67.33
75134;HTU21D;73631;44.326;40.200;2024-02-04T02:12:35;2.16;67.36
75134;HTU21D;73631;44.326;40.200;2024-02-04T02:15:21;2.14;67.37
75134;HTU21D;73631;44.326;40.200;2024-02-04T02:24:08;2.09;67.49
75134;HTU21D;73631;44.326;40.200;2024-02-04T02:26:36;2.07;67.57
75134;HTU21D;73631;44.326;40.200;2024-02-04T02:29:06;2.05;67.59
75134;HTU21D;73631;44.326;40.200;2024-02-04T02:31:36;2.06;67.61
75134;HTU21D;73631;44.326;40.200;2024-02-04T02:34:03;2.06;67.61
75134;HTU21D;73631;44.326;40.200;2024-02-04T02:36:35;2.03;67.49
75134;HTU21D;73631;44.326;40.200;2024-02-04T02:39:13;1.99;67.49
75134;HTU21D;73631;44.326;40.200;2024-02-04T02:41:42;1.97;67.59
75134;HTU21D;73631;44.326;40.200;2024-02-04T02:44:11;1.95;67.65
75134;HTU21D;73631;44.326;40.200;2024-02-04T02:46:38;1.97;67.73
75134;HTU21D;73631;44.326;40.200;2024-02-04T02:49:05;2.00;67.78
75134;HTU21D;73631;44.326;40.200;2024-02-04T02:51:32;2.01;67.72
75134;HTU21D;73631;44.326;40.200;2024-02-04T02:53:58;2.02;67.71
75134;HTU21D;73631;44.326;40.200;2024-02-04T02:56:24;2.02;67.67
75134;HTU21D;73631;44.326;40.200;2024-02-04T02:58:51;2.01;67.69
75134;HTU21D;73631;44.326;40.200;2024-02-04T03:01:17;2.01;67.68
75134;HTU21D;73631;44.326;40.200;2024-02-04T03:03:43;2.01;67.68
75134;HTU21D;73631;44.326;40.200;2024-02-04T03:06:10;2.02;67.72
75134;HTU21D;73631;44.326;40.200;2024-02-04T03:08:36;2.03;67.75
75134;HTU21D;73631;44.326;40.200;2024-02-04T03:11:21;2.02;67.71
75134;HTU21D;73631;44.326;40.200;2024-02-04T03:13:48;2.01;67.65
75134;HTU21D;73631;44.326;40.200;2024-02-04T03:16:15;2.00;67.68
75134;HTU21D;73631;44.326;40.200;2024-02-04T03:18:43;1.98;67.68
75134;HTU21D;73631;44.326;40.200;2024-02-04T03:21:16;1.95;67.74
75134;HTU21D;73631;44.326;40.200;2024-02-04T03:23:44;1.91;67.78
75134;HTU21D;73631;44.326;40.200;2024-02-04T03:26:11;1.90;67.88
75134;HTU21D;73631;44.326;40.200;2024-02-04T03:28:56;1.93;67.97
75134;HTU21D;73631;44.326;40.200;2024-02-04T03:31:23;1.93;67.99
75134;HTU21D;73631;44.326;40.200;2024-02-04T03:33:51;1.96;68.06
75134;HTU21D;73631;44.326;40.200;2024-02-04T03:36:23;2.02;68.21
75134;HTU21D;73631;44.326;40.200;2024-02-04T03:38:52;2.11;68.08
75134;HTU21D;73631;44.326;40.200;2024-02-04T03:41:19;2.21;68.17
75134;HTU21D;73631;44.326;40.200;2024-02-04T03:43:45;2.29;67.91
75134;HTU21D;73631;44.326;40.200;2024-02-04T03:46:16;2.28;67.77
75134;HTU21D;73631;44.326;40.200;2024-02-04T03:48:43;2.29;67.73
75134;HTU21D;73631;44.326;40.200;2024-02-04T03:51:15;2.29;67.71
75134;HTU21D;73631;44.326;40.200;2024-02-04T03:53:43;2.29;67.78
75134;HTU21D;73631;44.326;40.200;2024-02-04T03:56:10;2.35;67.94
75134;HTU21D;73631;44.326;40.200;2024-02-04T03:58:36;2.47;68.01
75134;HTU21D;73631;44.326;40.200;2024-02-04T04:01:03;2.61;68.07
75134;HTU21D;73631;44.326;40.200;2024-02-04T04:03:29;2.80;67.93
75134;HTU21D;73631;44.326;40.200;2024-02-04T04:05:56;2.98;67.72
75134;HTU21D;73631;44.326;40.200;2024-02-04T04:08:22;3.12;67.50
75134;HTU21D;73631;44.326;40.200;2024-02-04T04:10:49;3.25;67.32
75134;HTU21D;73631;44.326;40.200;2024-02-04T04:13:16;3.36;67.14
75134;HTU21D;73631;44.326;40.200;2024-02-04T04:15:43;3.44;66.95
75134;HTU21D;73631;44.326;40.200;2024-02-04T04:18:09;3.50;66.81
75134;HTU21D;73631;44.326;40.200;2024-02-04T04:20:39;3.56;66.63
75134;HTU21D;73631;44.326;40.200;2024-02-04T04:23:05;3.55;66.51
75134;HTU21D;73631;44.326;40.200;2024-02-04T04:25:32;3.56;66.46
75134;HTU21D;73631;44.326;40.200;2024-02-04T04:27:59;3.56;66.44
75134;HTU21D;73631;44.326;40.200;2024-02-04T04:33:47;3.58;66.22
75134;HTU21D;73631;44.326;40.200;2024-02-04T04:36:15;3.52;66.21
75134;HTU21D;73631;44.326;40.200;2024-02-04T04:38:42;3.45;66.25
75134;HTU21D;73631;44.326;40.200;2024-02-04T04:41:09;3.42;66.28
75134;HTU21D;73631;44.326;40.200;2024-02-04T04:43:38;3.39;66.29
75134;HTU21D;73631;44.326;40.200;2024-02-04T04:46:05;3.35;66.30
75134;HTU21D;73631;44.326;40.200;2024-02-04T04:48:31;3.31;66.30
75134;HTU21D;73631;44.326;40.200;2024-02-04T04:50:57;3.29;66.33
75134;HTU21D;73631;44.326;40.200;2024-02-04T04:53:24;3.26;66.33
75134;HTU21D;73631;44.326;40.200;2024-02-04T04:55:50;3.25;66.40
75134;HTU21D;73631;44.326;40.200;2024-02-04T04:58:16;3.23;66.40
75134;HTU21D;73631;44.326;40.200;2024-02-04T05:01:01;3.20;66.35
75134;HTU21D;73631;44.326;40.200;2024-02-04T05:03:28;3.16;66.38
75134;HTU21D;73631;44.326;40.200;2024-02-04T05:05:54;3.16;66.43
75134;HTU21D;73631;44.326;40.200;2024-02-04T05:08:20;3.14;66.46
75134;HTU21D;73631;44.326;40.200;2024-02-04T05:10:47;3.12;66.46
75134;HTU21D;73631;44.326;40.200;2024-02-04T05:13:13;3.11;66.45
75134;HTU21D;73631;44.326;40.200;2024-02-04T05:15:39;3.12;66.56
75134;HTU21D;73631;44.326;40.200;2024-02-04T05:18:06;3.14;66.56
75134;HTU21D;73631;44.326;40.200;2024-02-04T05:20:51;3.16;66.55
75134;HTU21D;73631;44.326;40.200;2024-02-04T05:23:17;3.18;66.58
75134;HTU21D;73631;44.326;40.200;2024-02-04T05:25:44;3.21;66.53
75134;HTU21D;73631;44.326;40.200;2024-02-04T05:28:10;3.21;66.52
75134;HTU21D;73631;44.326;40.200;2024-02-04T05:30:37;3.21;66.51
75134;HTU21D;73631;44.326;40.200;2024-02-04T05:33:03;3.25;66.49
75134;HTU21D;73631;44.326;40.200;2024-02-04T05:35:30;3.25;66.46
75134;HTU21D;73631;44.326;40.200;2024-02-04T05:37:57;3.26;66.56
75134;HTU21D;73631;44.326;40.200;2024-02-04T05:40:23;3.32;66.72
75134;HTU21D;73631;44.326;40.200;2024-02-04T05:42:50;3.42;66.74
75134;HTU21D;73631;44.326;40.200;2024-02-04T05:48:02;3.64;66.62
75134;HTU21D;73631;44.326;40.200;2024-02-04T05:50:28;3.73;66.55
75134;HTU21D;73631;44.326;40.200;2024-02-04T05:52:55;3.82;66.34
75134;HTU21D;73631;44.326;40.200;2024-02-04T05:55:21;3.93;66.37
75134;HTU21D;73631;44.326;40.200;2024-02-04T05:57:48;4.00;66.19
75134;HTU21D;73631;44.326;40.200;2024-02-04T06:00:14;4.06;66.14
75134;HTU21D;73631;44.326;40.200;2024-02-04T06:02:41;4.14;66.08
75134;HTU21D;73631;44.326;40.200;2024-02-04T06:05:10;4.22;66.07
75134;HTU21D;73631;44.326;40.200;2024-02-04T06:07:36;4.31;65.99
75134;HTU21D;73631;44.326;40.200;2024-02-04T06:10:02;4.41;65.90
75134;HTU21D;73631;44.326;40.200;2024-02-04T06:12:30;4.48;65.74
75134;HTU21D;73631;44.326;40.200;2024-02-04T06:14:56;4.54;65.64
75134;HTU21D;73631;44.326;40.200;2024-02-04T06:17:24;4.60;65.61
75134;HTU21D;73631;44.326;40.200;2024-02-04T06:19:51;4.65;65.53
75134;HTU21D;73631;44.326;40.200;2024-02-04T06:22:17;4.69;65.50
75134;HTU21D;73631;44.326;40.200;2024-02-04T06:24:43;4.74;65.47
75134;HTU21D;73631;44.326;40.200;2024-02-04T06:27:11;4.77;65.41
75134;HTU21D;73631;44.326;40.200;2024-02-04T06:29:37;4.82;65.35
75134;HTU21D;73631;44.326;40.200;2024-02-04T06:32:05;4.90;65.40
75134;HTU21D;73631;44.326;40.200;2024-02-04T06:34:33;4.97;65.27
75134;HTU21D;73631;44.326;40.200;2024-02-04T06:36:59;5.04;65.24
75134;HTU21D;73631;44.326;40.200;2024-02-04T06:39:25;5.09;65.22
75134;HTU21D;73631;44.326;40.200;2024-02-04T06:41:52;5.17;65.06
75134;HTU21D;73631;44.326;40.200;2024-02-04T06:44:18;5.22;65.05
75134;HTU21D;73631;44.326;40.200;2024-02-04T06:46:45;5.30;65.04
75134;HTU21D;73631;44.326;40.200;2024-02-04T06:49:11;5.35;64.91
75134;HTU21D;73631;44.326;40.200;2024-02-04T06:51:44;5.41;64.84
75134;HTU21D;73631;44.326;40.200;2024-02-04T06:54:11;5.47;64.82
75134;HTU21D;73631;44.326;40.200;2024-02-04T06:56:38;5.52;64.60
75134;HTU21D;73631;44.326;40.200;2024-02-04T06:59:05;5.59;64.54
75134;HTU21D;73631;44.326;40.200;2024-02-04T07:01:32;5.65;64.49
75134;HTU21D;73631;44.326;40.200;2024-02-04T07:03:59;5.69;64.39
75134;HTU21D;73631;44.326;40.200;2024-02-04T07:06:26;5.75;64.31
75134;HTU21D;73631;44.326;40.200;2024-02-04T07:08:53;5.79;64.25
75134;HTU21D;73631;44.326;40.200;2024-02-04T07:11:20;5.81;64.14
75134;HTU21D;73631;44.326;40.200;2024-02-04T07:13:46;5.87;64.14
75134;HTU21D;73631;44.326;40.200;2024-02-04T07:16:12;5.93;63.88
75134;HTU21D;73631;44.326;40.200;2024-02-04T07:18:39;5.98;63.82
75134;HTU21D;73631;44.326;40.200;2024-02-04T07:21:06;6.05;63.80
75134;HTU21D;73631;44.326;40.200;2024-02-04T07:23:32;6.09;63.73
75134;HTU21D;73631;44.326;40.200;2024-02-04T07:25:59;6.13;63.60
75134;HTU21D;73631;44.326;40.200;2024-02-04T07:28:26;6.19;63.67
75134;HTU21D;73631;44.326;40.200;2024-02-04T07:30:52;6.25;63.71
75134;HTU21D;73631;44.326;40.200;2024-02-04T07:33:19;6.34;63.66
75134;HTU21D;73631;44.326;40.200;2024-02-04T07:35:45;6.42;63.63
75134;HTU21D;73631;44.326;40.200;2024-02-04T07:38:12;6.52;63.49
75134;HTU21D;73631;44.326;40.200;2024-02-04T07:40:38;6.61;63.37
75134;HTU21D;73631;44.326;40.200;2024-02-04T07:43:05;6.73;63.19
75134;HTU21D;73631;44.326;40.200;2024-02-04T07:45:32;6.83;63.22
75134;HTU21D;73631;44.326;40.200;2024-02-04T07:47:59;6.93;63.18
75134;HTU21D;73631;44.326;40.200;2024-02-04T07:50:25;7.01;62.90
75134;HTU21D;73631;44.326;40.200;2024-02-04T07:52:52;7.11;62.76
75134;HTU21D;73631;44.326;40.200;2024-02-04T07:55:19;7.20;62.70
75134;HTU21D;73631;44.326;40.200;2024-02-04T07:57:46;7.35;62.73
75134;HTU21D;73631;44.326;40.200;2024-02-04T08:00:14;7.50;62.71
75134;HTU21D;73631;44.326;40.200;2024-02-04T08:02:40;7.65;62.25
75134;HTU21D;73631;44.326;40.200;2024-02-04T08:05:07;7.77;62.23
75134;HTU21D;73631;44.326;40.200;2024-02-04T08:07:33;7.88;61.90
75134;HTU21D;73631;44.326;40.200;2024-02-04T08:10:00;7.93;61.44
75134;HTU21D;73631;44.326;40.200;2024-02-04T08:12:26;8.01;61.58
75134;HTU21D;73631;44.326;40.200;2024-02-04T08:14:53;8.13;61.66
75134;HTU21D;73631;44.326;40.200;2024-02-04T08:17:20;8.26;61.30
75134;HTU21D;73631;44.326;40.200;2024-02-04T08:19:48;8.39;61.31
75134;HTU21D;73631;44.326;40.200;2024-02-04T08:22:16;8.53;61.20
75134;HTU21D;73631;44.326;40.200;2024-02-04T08:24:44;8.72;61.14
75134;HTU21D;73631;44.326;40.200;2024-02-04T08:27:10;8.87;60.99
75134;HTU21D;73631;44.326;40.200;2024-02-04T08:29:37;8.97;60.20
75134;HTU21D;73631;44.326;40.200;2024-02-04T08:32:04;9.10;60.24
75134;HTU21D;73631;44.326;40.200;2024-02-04T08:34:30;9.22;59.89
75134;HTU21D;73631;44.326;40.200;2024-02-04T08:36:56;9.25;59.54
75134;HTU21D;73631;44.326;40.200;2024-02-04T08:39:23;9.33;59.30
75134;HTU21D;73631;44.326;40.200;2024-02-04T08:41:52;9.42;59.26
75134;HTU21D;73631;44.326;40.200;2024-02-04T08:44:19;9.54;58.97
75134;HTU21D;73631;44.326;40.200;2024-02-04T08:46:48;9.64;58.80
75134;HTU21D;73631;44.326;40.200;2024-02-04T08:49:15;9.72;58.93
75134;HTU21D;73631;44.326;40.200;2024-02-04T08:51:43;9.83;58.75
75134;HTU21D;73631;44.326;40.200;2024-02-04T08:54:09;9.95;58.19
75134;HTU21D;73631;44.326;40.200;2024-02-04T08:56:37;10.08;58.06
75134;HTU21D;73631;44.326;40.200;2024-02-04T08:59:04;10.22;57.45
75134;HTU21D;73631;44.326;40.200;2024-02-04T09:01:32;10.34;57.29
75134;HTU21D;73631;44.326;40.200;2024-02-04T09:03:59;10.42;56.84
75134;HTU21D;73631;44.326;40.200;2024-02-04T09:06:26;10.48;56.97
75134;HTU21D;73631;44.326;40.200;2024-02-04T09:08:53;10.54;56.37
75134;HTU21D;73631;44.326;40.200;2024-02-04T09:11:19;10.58;56.29
75134;HTU21D;73631;44.326;40.200;2024-02-04T09:13:46;10.69;56.21
75134;HTU21D;73631;44.326;40.200;2024-02-04T09:16:13;10.80;56.48
75134;HTU21D;73631;44.326;40.200;2024-02-04T09:18:39;10.95;56.45
75134;HTU21D;73631;44.326;40.200;2024-02-04T09:21:06;11.07;56.58
75134;HTU21D;73631;44.326;40.200;2024-02-04T09:23:33;11.19;55.85
75134;HTU21D;73631;44.326;40.200;2024-02-04T09:26:00;11.27;55.92
75134;HTU21D;73631;44.326;40.200;2024-02-04T09:28:26;11.27;55.98
75134;HTU21D;73631;44.326;40.200;2024-02-04T09:30:53;11.22;54.54
75134;HTU21D;73631;44.326;40.200;2024-02-04T09:33:19;11.13;53.81
75134;HTU21D;73631;44.326;40.200;2024-02-04T09:35:46;11.03;53.69
75134;HTU21D;73631;44.326;40.200;2024-02-04T09:38:13;11.00;53.94
75134;HTU21D;73631;44.326;40.200;2024-02-04T09:40:40;11.05;53.98
75134;HTU21D;73631;44.326;40.200;2024-02-04T09:43:06;11.10;54.46
75134;HTU21D;73631;44.326;40.200;2024-02-04T09:45:34;11.07;53.39
75134;HTU21D;73631;44.326;40.200;2024-02-04T09:48:02;11.02;53.26
75134;HTU21D;73631;44.326;40.200;2024-02-04T09:50:29;11.04;53.77
75134;HTU21D;73631;44.326;40.200;2024-02-04T09:52:59;11.03;52.97
75134;HTU21D;73631;44.326;40.200;2024-02-04T09:55:27;11.15;53.57
75134;HTU21D;73631;44.326;40.200;2024-02-04T09:57:55;11.36;53.18
75134;HTU21D;73631;44.326;40.200;2024-02-04T10:00:21;11.51;52.98
75134;HTU21D;73631;44.326;40.200;2024-02-04T10:02:48;11.66;52.11
75134;HTU21D;73631;44.326;40.200;2024-02-04T10:05:15;11.69;51.77
75134;HTU21D;73631;44.326;40.200;2024-02-04T10:07:42;11.66;51.53
75134;HTU21D;73631;44.326;40.200;2024-02-04T10:10:09;11.63;51.73
75134;HTU21D;73631;44.326;40.200;2024-02-04T10:12:36;11.68;52.01
75134;HTU21D;73631;44.326;40.200;2024-02-04T10:15:05;11.67;51.53
75134;HTU21D;73631;44.326;40.200;2024-02-04T10:17:32;11.59;51.36
75134;HTU21D;73631;44.326;40.200;2024-02-04T10:20:00;11.52;51.33
75134;HTU21D;73631;44.326;40.200;2024-02-04T10:22:27;11.41;51.40
75134;HTU21D;73631;44.326;40.200;2024-02-04T10:25:06;11.27;51.19
75134;HTU21D;73631;44.326;40.200;2024-02-04T10:27:34;11.17;51.64
75134;HTU21D;73631;44.326;40.200;2024-02-04T10:30:00;11.15;52.30
75134;HTU21D;73631;44.326;40.200;2024-02-04T10:32:28;11.14;51.93
75134;HTU21D;73631;44.326;40.200;2024-02-04T10:34:54;11.13;51.79
75134;HTU21D;73631;44.326;40.200;2024-02-04T10:37:21;11.11;51.89
75134;HTU21D;73631;44.326;40.200;2024-02-04T10:39:47;11.10;51.98
75134;HTU21D;73631;44.326;40.200;2024-02-04T10:42:15;10.99;51.49
75134;HTU21D;73631;44.326;40.200;2024-02-04T10:44:46;10.93;51.50
75134;HTU21D;73631;44.326;40.200;2024-02-04T10:47:17;10.87;51.27
75134;HTU21D;73631;44.326;40.200;2024-02-04T10:49:52;10.84;51.74
75134;HTU21D;73631;44.326;40.200;2024-02-04T10:52:23;10.87;51.67
75134;HTU21D;73631;44.326;40.200;2024-02-04T10:54:53;10.89;51.66
75134;HTU21D;73631;44.326;40.200;2024-02-04T10:57:22;10.94;51.17
75134;HTU21D;73631;44.326;40.200;2024-02-04T10:59:49;10.95;51.27
75134;HTU21D;73631;44.326;40.200;2024-02-04T11:02:16;10.98;51.42
75134;HTU21D;73631;44.326;40.200;2024-02-04T11:04:43;10.93;50.88
75134;HTU21D;73631;44.326;40.200;2024-02-04T11:07:12;10.86;50.79
75134;HTU21D;73631;44.326;40.200;2024-02-04T11:09:40;10.82;50.89
75134;HTU21D;73631;44.326;40.200;2024-02-04T11:12:11;10.78;50.74
75134;HTU21D;73631;44.326;40.200;2024-02-04T11:14:41;10.74;50.76
75134;HTU21D;73631;44.326;40.200;2024-02-04T11:17:24;10.68;50.23
75134;HTU21D;73631;44.326;40.200;2024-02-04T11:20:35;10.62;50.27
75134;HTU21D;73631;44.326;40.200;2024-02-04T11:26:00;10.59;50.74
75134;HTU21D;73631;44.326;40.200;2024-02-04T11:28:27;10.68;50.99
75134;HTU21D;73631;44.326;40.200;2024-02-04T11:30:54;10.71;50.11
75134;HTU21D;73631;44.326;40.200;2024-02-04T11:33:22;10.70;49.99
75134;HTU21D;73631;44.326;40.200;2024-02-04T11:36:03;10.63;49.79
75134;HTU21D;73631;44.326;40.200;2024-02-04T11:38:36;10.66;50.12
75134;HTU21D;73631;44.326;40.200;2024-02-04T11:41:03;10.79;50.43
75134;HTU21D;73631;44.326;40.200;2024-02-04T11:43:33;10.95;50.02
75134;HTU21D;73631;44.326;40.200;2024-02-04T11:46:02;11.02;50.09
75134;HTU21D;73631;44.326;40.200;2024-02-04T11:48:30;10.99;49.37
75134;HTU21D;73631;44.326;40.200;2024-02-04T11:50:58;10.96;49.35
75134;HTU21D;73631;44.326;40.200;2024-02-04T11:53:29;11.02;49.35
75134;HTU21D;73631;44.326;40.200;2024-02-04T11:56:00;11.04;49.18
75134;HTU21D;73631;44.326;40.200;2024-02-04T11:58:29;11.01;49.08
75134;HTU21D;73631;44.326;40.200;2024-02-04T12:00:57;10.99;49.11
75134;HTU21D;73631;44.326;40.200;2024-02-04T12:03:33;11.01;49.02
75134;HTU21D;73631;44.326;40.200;2024-02-04T12:06:00;11.10;49.41
75134;HTU21D;73631;44.326;40.200;2024-02-04T12:08:28;11.24;49.41
75134;HTU21D;73631;44.326;40.200;2024-02-04T12:10:54;11.32;49.17
75134;HTU21D;73631;44.326;40.200;2024-02-04T12:13:21;11.29;48.86
75134;HTU21D;73631;44.326;40.200;2024-02-04T12:15:48;11.19;48.74
75134;HTU21D;73631;44.326;40.200;2024-02-04T12:18:15;11.10;49.05
75134;HTU21D;73631;44.326;40.200;2024-02-04T12:20:47;11.04;49.27
75134;HTU21D;73631;44.326;40.200;2024-02-04T12:23:15;11.01;49.02
75134;HTU21D;73631;44.326;40.200;2024-02-04T12:25:45;10.99;49.09
75134;HTU21D;73631;44.326;40.200;2024-02-04T12:28:14;10.96;49.27
75134;HTU21D;73631;44.326;40.200;2024-02-04T12:30:40;10.95;49.20
75134;HTU21D;73631;44.326;40.200;2024-02-04T12:33:07;10.92;49.20
75134;HTU21D;73631;44.326;40.200;2024-02-04T12:35:34;10.85;49.30
75134;HTU21D;73631;44.326;40.200;2024-02-04T12:38:01;10.75;49.19
75134;HTU21D;73631;44.326;40.200;2024-02-04T12:40:30;10.63;49.27
75134;HTU21D;73631;44.326;40.200;2024-02-04T12:43:00;10.55;49.46
75134;HTU21D;73631;44.326;40.200;2024-02-04T12:45:28;10.48;49.51
75134;HTU21D;73631;44.326;40.200;2024-02-04T12:47:56;10.39;49.77
75134;HTU21D;73631;44.326;40.200;2024-02-04T12:50:24;10.35;49.60
75134;HTU21D;73631;44.326;40.200;2024-02-04T12:53:09;10.30;49.54
75134;HTU21D;73631;44.326;40.200;2024-02-04T12:55:40;10.27;49.69
75134;HTU21D;73631;44.326;40.200;2024-02-04T12:58:10;10.26;50.06
75134;HTU21D;73631;44.326;40.200;2024-02-04T13:00:43;10.19;49.50
75134;HTU21D;73631;44.326;40.200;2024-02-04T13:03:10;10.10;49.66
75134;HTU21D;73631;44.326;40.200;2024-02-04T13:05:37;10.05;49.92
75134;HTU21D;73631;44.326;40.200;2024-02-04T13:08:04;10.00;49.77
75134;HTU21D;73631;44.326;40.200;2024-02-04T13:10:33;9.93;49.69
75134;HTU21D;73631;44.326;40.200;2024-02-04T13:15:31;9.78;49.92
75134;HTU21D;73631;44.326;40.200;2024-02-04T13:17:58;9.72;50.12
75134;HTU21D;73631;44.326;40.200;2024-02-04T13:20:25;9.68;50.23
75134;HTU21D;73631;44.326;40.200;2024-02-04T13:22:52;9.65;50.31
75134;HTU21D;73631;44.326;40.200;2024-02-04T13:25:21;9.64;50.36
75134;HTU21D;73631;44.326;40.200;2024-02-04T13:27:49;9.66;50.40
75134;HTU21D;73631;44.326;40.200;2024-02-04T13:30:17;9.66;50.26
75134;HTU21D;73631;44.326;40.200;2024-02-04T13:32:45;9.63;50.13
75134;HTU21D;73631;44.326;40.200;2024-02-04T13:35:12;9.62;50.26
75134;HTU21D;73631;44.326;40.200;2024-02-04T13:37:39;9.61;50.35
75134;HTU21D;73631;44.326;40.200;2024-02-04T13:40:07;9.60;50.30
75134;HTU21D;73631;44.326;40.200;2024-02-04T13:42:34;9.56;50.41
75134;HTU21D;73631;44.326;40.200;2024-02-04T13:45:01;9.52;50.40
75134;HTU21D;73631;44.326;40.200;2024-02-04T13:47:30;9.48;50.45
75134;HTU21D;73631;44.326;40.200;2024-02-04T13:49:57;9.40;50.49
75134;HTU21D;73631;44.326;40.200;2024-02-04T13:52:23;9.32;50.47
75134;HTU21D;73631;44.326;40.200;2024-02-04T13:54:50;9.25;50.59
75134;HTU21D;73631;44.326;40.200;2024-02-04T13:57:16;9.17;50.64
75134;HTU21D;73631;44.326;40.200;2024-02-04T13:59:43;9.09;50.68
75134;HTU21D;73631;44.326;40.200;2024-02-04T14:02:09;9.04;50.77
75134;HTU21D;73631;44.326;40.200;2024-02-04T14:04:35;9.00;50.92
75134;HTU21D;73631;44.326;40.200;2024-02-04T14:07:02;8.92;50.95
75134;HTU21D;73631;44.326;40.200;2024-02-04T14:09:29;8.86;50.96
75134;HTU21D;73631;44.326;40.200;2024-02-04T14:11:55;8.78;51.07
75134;HTU21D;73631;44.326;40.200;2024-02-04T14:14:25;8.70;50.86
75134;HTU21D;73631;44.326;40.200;2024-02-04T14:16:51;8.61;51.04
75134;HTU21D;73631;44.326;40.200;2024-02-04T14:19:18;8.56;51.18
75134;HTU21D;73631;44.326;40.200;2024-02-04T14:21:44;8.49;51.30
75134;HTU21D;73631;44.326;40.200;2024-02-04T14:24:10;8.46;51.40
75134;HTU21D;73631;44.326;40.200;2024-02-04T14:26:37;8.39;51.46
75134;HTU21D;73631;44.326;40.200;2024-02-04T14:29:04;8.37;51.56
75134;HTU21D;73631;44.326;40.200;2024-02-04T14:31:31;8.34;51.64
75134;HTU21D;73631;44.326;40.200;2024-02-04T14:33:57;8.30;51.70
75134;HTU21D;73631;44.326;40.200;2024-02-04T14:36:24;8.30;51.76
75134;HTU21D;73631;44.326;40.200;2024-02-04T14:38:50;8.28;51.81
75134;HTU21D;73631;44.326;40.200;2024-02-04T14:41:17;8.26;51.81
75134;HTU21D;73631;44.326;40.200;2024-02-04T14:43:43;8.20;51.86
75134;HTU21D;73631;44.326;40.200;2024-02-04T14:46:10;8.17;51.95
75134;HTU21D;73631;44.326;40.200;2024-02-04T14:48:36;8.16;52.00
75134;HTU21D;73631;44.326;40.200;2024-02-04T14:51:04;8.09;52.07
75134;HTU21D;73631;44.326;40.200;2024-02-04T14:53:31;8.05;52.15
75134;HTU21D;73631;44.326;40.200;2024-02-04T14:55:57;8.02;52.20
75134;HTU21D;73631;44.326;40.200;2024-02-04T14:58:24;8.01;52.38
75134;HTU21D;73631;44.326;40.200;2024-02-04T15:00:50;7.97;52.48
75134;HTU21D;73631;44.326;40.200;2024-02-04T15:03:16;7.93;52.43
75134;HTU21D;73631;44.326;40.200;2024-02-04T15:05:43;7.89;52.56
75134;HTU21D;73631;44.326;40.200;2024-02-04T15:08:09;7.82;52.66
75134;HTU21D;73631;44.326;40.200;2024-02-04T15:10:36;7.76;52.86
75134;HTU21D;73631;44.326;40.200;2024-02-04T15:13:03;7.71;52.75
75134;HTU21D;73631;44.326;40.200;2024-02-04T15:15:30;7.61;52.78
75134;HTU21D;73631;44.326;40.200;2024-02-04T15:17:57;7.53;52.95
75134;HTU21D;73631;44.326;40.200;2024-02-04T15:20:24;7.45;53.14
75134;HTU21D;73631;44.326;40.200;2024-02-04T15:22:50;7.40;53.27
75134;HTU21D;73631;44.326;40.200;2024-02-04T15:25:17;7.37;53.44
75134;HTU21D;73631;44.326;40.200;2024-02-04T15:27:44;7.35;53.56
75134;HTU21D;73631;44.326;40.200;2024-02-04T15:30:13;7.33;53.66
75134;HTU21D;73631;44.326;40.200;2024-02-04T15:32:40;7.32;53.82
75134;HTU21D;73631;44.326;40.200;2024-02-04T15:35:08;7.32;53.91